Terminal Aerodrome Forecast
Issued by NWS Des Moines, IA

Home | Current Version | Previous Version | Text Only | Print | Product List | Glossary On
Versions: 1 2 3 4 5 6 7 8 9 10 11 12 13 14 15 16 17
000
FTUS43 KDMX 281136
TAFDSM
TAF
KDSM 281136Z 2812/2912 21013G20KT P6SM SCT035 OVC080
     FM281400 20014G20KT P6SM VCTS SCT050CB BKN080
     FM281600 21014G22KT P6SM SCT080
     FM282200 22014G25KT P6SM VCTS SCT035CB BKN070
     FM290200 21009G15KT P6SM SHRA VCTS BKN090CB
     FM290400 21007KT P6SM BKN080=

USA.gov is the U.S. government's official web portal to all federal, state and local government web resources and services.